sensor_id;sensor_type;location;lat;lon;timestamp;P1;durP1;ratioP1;P2;durP2;ratioP2
67065;SDS011;53978;43.846;25.952;2022-10-23T00:00:46;14.70;;;7.63;;
67065;SDS011;53978;43.846;25.952;2022-10-23T00:03:12;11.18;;;7.47;;
67065;SDS011;53978;43.846;25.952;2022-10-23T00:05:38;10.73;;;7.13;;
67065;SDS011;53978;43.846;25.952;2022-10-23T00:08:05;10.13;;;6.97;;
67065;SDS011;53978;43.846;25.952;2022-10-23T00:10:31;14.23;;;7.07;;
67065;SDS011;53978;43.846;25.952;2022-10-23T00:12:57;12.75;;;6.55;;
67065;SDS011;53978;43.846;25.952;2022-10-23T00:15:22;14.70;;;6.63;;
67065;SDS011;53978;43.846;25.952;2022-10-23T00:17:48;13.40;;;6.93;;
67065;SDS011;53978;43.846;25.952;2022-10-23T00:20:14;12.07;;;7.32;;
67065;SDS011;53978;43.846;25.952;2022-10-23T00:22:40;10.48;;;7.00;;
67065;SDS011;53978;43.846;25.952;2022-10-23T00:25:06;17.90;;;7.00;;
67065;SDS011;53978;43.846;25.952;2022-10-23T00:27:32;13.45;;;7.38;;
67065;SDS011;53978;43.846;25.952;2022-10-23T00:29:58;13.00;;;7.35;;
67065;SDS011;53978;43.846;25.952;2022-10-23T00:32:24;10.80;;;7.10;;
67065;SDS011;53978;43.846;25.952;2022-10-23T00:34:50;11.95;;;6.85;;
67065;SDS011;53978;43.846;25.952;2022-10-23T00:37:15;11.35;;;7.32;;
67065;SDS011;53978;43.846;25.952;2022-10-23T00:39:41;11.48;;;6.70;;
67065;SDS011;53978;43.846;25.952;2022-10-23T00:42:09;9.65;;;6.80;;
67065;SDS011;53978;43.846;25.952;2022-10-23T00:47:21;9.02;;;6.43;;
67065;SDS011;53978;43.846;25.952;2022-10-23T00:49:47;11.63;;;6.65;;
67065;SDS011;53978;43.846;25.952;2022-10-23T00:52:12;10.00;;;6.53;;
67065;SDS011;53978;43.846;25.952;2022-10-23T00:54:39;13.93;;;6.95;;
67065;SDS011;53978;43.846;25.952;2022-10-23T00:57:07;12.95;;;6.78;;
67065;SDS011;53978;43.846;25.952;2022-10-23T00:59:36;12.50;;;6.28;;
67065;SDS011;53978;43.846;25.952;2022-10-23T01:02:01;11.52;;;6.63;;
67065;SDS011;53978;43.846;25.952;2022-10-23T01:04:27;9.68;;;6.60;;
67065;SDS011;53978;43.846;25.952;2022-10-23T01:07:17;10.57;;;6.78;;
67065;SDS011;53978;43.846;25.952;2022-10-23T01:15:56;10.85;;;6.30;;
67065;SDS011;53978;43.846;25.952;2022-10-23T01:20:56;8.88;;;5.93;;
67065;SDS011;53978;43.846;25.952;2022-10-23T01:23:57;11.48;;;6.35;;
67065;SDS011;53978;43.846;25.952;2022-10-23T01:29:12;12.45;;;6.85;;
67065;SDS011;53978;43.846;25.952;2022-10-23T01:37:13;9.95;;;6.95;;
67065;SDS011;53978;43.846;25.952;2022-10-23T01:39:43;9.32;;;6.57;;
67065;SDS011;53978;43.846;25.952;2022-10-23T01:42:12;11.27;;;6.30;;
67065;SDS011;53978;43.846;25.952;2022-10-23T01:44:42;14.05;;;6.80;;
67065;SDS011;53978;43.846;25.952;2022-10-23T01:47:11;11.13;;;6.38;;
67065;SDS011;53978;43.846;25.952;2022-10-23T01:49:39;9.95;;;6.90;;
67065;SDS011;53978;43.846;25.952;2022-10-23T01:52:06;10.50;;;6.35;;
67065;SDS011;53978;43.846;25.952;2022-10-23T01:54:34;12.25;;;6.75;;
67065;SDS011;53978;43.846;25.952;2022-10-23T01:57:03;9.85;;;6.43;;
67065;SDS011;53978;43.846;25.952;2022-10-23T01:59:30;9.52;;;6.47;;
67065;SDS011;53978;43.846;25.952;2022-10-23T02:01:59;13.80;;;6.15;;
67065;SDS011;53978;43.846;25.952;2022-10-23T02:04:29;9.40;;;6.32;;
67065;SDS011;53978;43.846;25.952;2022-10-23T02:06:57;10.10;;;6.38;;
67065;SDS011;53978;43.846;25.952;2022-10-23T02:09:23;13.80;;;6.75;;
67065;SDS011;53978;43.846;25.952;2022-10-23T02:11:53;11.50;;;6.38;;
67065;SDS011;53978;43.846;25.952;2022-10-23T02:14:28;11.00;;;6.53;;
67065;SDS011;53978;43.846;25.952;2022-10-23T02:17:11;9.88;;;6.30;;
67065;SDS011;53978;43.846;25.952;2022-10-23T02:19:43;14.63;;;6.55;;
67065;SDS011;53978;43.846;25.952;2022-10-23T02:24:48;10.10;;;6.15;;
67065;SDS011;53978;43.846;25.952;2022-10-23T02:27:25;9.60;;;6.43;;
67065;SDS011;53978;43.846;25.952;2022-10-23T02:29:59;13.93;;;6.38;;
67065;SDS011;53978;43.846;25.952;2022-10-23T02:32:28;11.73;;;6.18;;
67065;SDS011;53978;43.846;25.952;2022-10-23T02:34:53;9.98;;;6.07;;
67065;SDS011;53978;43.846;25.952;2022-10-23T02:37:19;10.82;;;6.47;;
67065;SDS011;53978;43.846;25.952;2022-10-23T02:39:44;9.02;;;6.15;;
67065;SDS011;53978;43.846;25.952;2022-10-23T02:42:14;10.77;;;6.30;;
67065;SDS011;53978;43.846;25.952;2022-10-23T02:53:10;8.82;;;5.85;;
67065;SDS011;53978;43.846;25.952;2022-10-23T02:55:45;11.57;;;5.78;;
67065;SDS011;53978;43.846;25.952;2022-10-23T02:58:29;10.48;;;5.85;;
67065;SDS011;53978;43.846;25.952;2022-10-23T03:01:10;8.82;;;5.90;;
67065;SDS011;53978;43.846;25.952;2022-10-23T03:03:39;9.85;;;5.57;;
67065;SDS011;53978;43.846;25.952;2022-10-23T03:06:07;9.25;;;5.50;;
67065;SDS011;53978;43.846;25.952;2022-10-23T03:08:43;8.13;;;5.20;;
67065;SDS011;53978;43.846;25.952;2022-10-23T03:11:09;7.20;;;5.07;;
67065;SDS011;53978;43.846;25.952;2022-10-23T03:13:34;11.18;;;5.30;;
67065;SDS011;53978;43.846;25.952;2022-10-23T03:16:00;11.23;;;6.45;;
67065;SDS011;53978;43.846;25.952;2022-10-23T03:18:26;13.85;;;6.25;;
67065;SDS011;53978;43.846;25.952;2022-10-23T03:20:51;11.20;;;6.13;;
67065;SDS011;53978;43.846;25.952;2022-10-23T03:23:17;9.00;;;5.82;;
67065;SDS011;53978;43.846;25.952;2022-10-23T03:25:42;11.15;;;5.95;;
67065;SDS011;53978;43.846;25.952;2022-10-23T03:28:08;9.20;;;6.05;;
67065;SDS011;53978;43.846;25.952;2022-10-23T03:30:33;8.95;;;5.90;;
67065;SDS011;53978;43.846;25.952;2022-10-23T03:32:58;7.45;;;5.55;;
67065;SDS011;53978;43.846;25.952;2022-10-23T03:35:24;9.23;;;6.07;;
67065;SDS011;53978;43.846;25.952;2022-10-23T03:37:49;8.88;;;5.70;;
67065;SDS011;53978;43.846;25.952;2022-10-23T03:40:15;9.38;;;6.13;;
67065;SDS011;53978;43.846;25.952;2022-10-23T03:42:40;12.27;;;5.78;;
67065;SDS011;53978;43.846;25.952;2022-10-23T03:45:05;11.38;;;6.60;;
67065;SDS011;53978;43.846;25.952;2022-10-23T03:47:31;11.15;;;6.43;;
67065;SDS011;53978;43.846;25.952;2022-10-23T03:49:59;9.40;;;6.38;;
67065;SDS011;53978;43.846;25.952;2022-10-23T03:52:24;13.93;;;6.43;;
67065;SDS011;53978;43.846;25.952;2022-10-23T03:54:50;12.88;;;6.78;;
67065;SDS011;53978;43.846;25.952;2022-10-23T03:57:15;12.27;;;7.03;;
67065;SDS011;53978;43.846;25.952;2022-10-23T03:59:40;13.07;;;7.68;;
67065;SDS011;53978;43.846;25.952;2022-10-23T04:02:06;19.85;;;8.25;;
67065;SDS011;53978;43.846;25.952;2022-10-23T04:04:31;11.98;;;6.97;;
67065;SDS011;53978;43.846;25.952;2022-10-23T04:06:57;12.35;;;7.63;;
67065;SDS011;53978;43.846;25.952;2022-10-23T04:09:22;9.25;;;6.78;;
67065;SDS011;53978;43.846;25.952;2022-10-23T04:11:47;14.65;;;6.95;;
67065;SDS011;53978;43.846;25.952;2022-10-23T04:14:13;9.23;;;6.32;;
67065;SDS011;53978;43.846;25.952;2022-10-23T04:16:38;8.57;;;6.03;;
67065;SDS011;53978;43.846;25.952;2022-10-23T04:19:04;12.27;;;6.85;;
67065;SDS011;53978;43.846;25.952;2022-10-23T04:21:30;14.38;;;6.70;;
67065;SDS011;53978;43.846;25.952;2022-10-23T04:23:55;12.82;;;6.18;;
67065;SDS011;53978;43.846;25.952;2022-10-23T04:26:20;11.30;;;5.93;;
67065;SDS011;53978;43.846;25.952;2022-10-23T04:28:46;10.88;;;6.15;;
67065;SDS011;53978;43.846;25.952;2022-10-23T04:31:11;14.15;;;6.47;;
67065;SDS011;53978;43.846;25.952;2022-10-23T04:33:37;10.10;;;6.65;;
67065;SDS011;53978;43.846;25.952;2022-10-23T04:36:02;8.13;;;5.80;;
67065;SDS011;53978;43.846;25.952;2022-10-23T04:38:28;11.10;;;6.03;;
67065;SDS011;53978;43.846;25.952;2022-10-23T04:40:53;11.30;;;6.18;;
67065;SDS011;53978;43.846;25.952;2022-10-23T04:43:18;10.48;;;6.70;;
67065;SDS011;53978;43.846;25.952;2022-10-23T04:45:44;11.15;;;6.28;;
67065;SDS011;53978;43.846;25.952;2022-10-23T04:48:09;14.27;;;6.40;;
67065;SDS011;53978;43.846;25.952;2022-10-23T04:50:35;10.00;;;6.32;;
67065;SDS011;53978;43.846;25.952;2022-10-23T04:53:00;13.10;;;6.22;;
67065;SDS011;53978;43.846;25.952;2022-10-23T04:55:25;10.60;;;5.97;;
67065;SDS011;53978;43.846;25.952;2022-10-23T04:57:51;10.32;;;6.13;;
67065;SDS011;53978;43.846;25.952;2022-10-23T05:00:17;11.80;;;5.63;;
67065;SDS011;53978;43.846;25.952;2022-10-23T05:02:43;11.50;;;5.45;;
67065;SDS011;53978;43.846;25.952;2022-10-23T05:05:08;9.13;;;5.55;;
67065;SDS011;53978;43.846;25.952;2022-10-23T05:07:35;8.15;;;5.18;;
67065;SDS011;53978;43.846;25.952;2022-10-23T05:10:00;14.43;;;5.93;;
67065;SDS011;53978;43.846;25.952;2022-10-23T05:12:27;11.32;;;5.95;;
67065;SDS011;53978;43.846;25.952;2022-10-23T05:14:52;8.63;;;5.50;;
67065;SDS011;53978;43.846;25.952;2022-10-23T05:17:22;16.13;;;5.97;;
67065;SDS011;53978;43.846;25.952;2022-10-23T05:19:54;13.70;;;5.80;;
67065;SDS011;53978;43.846;25.952;2022-10-23T05:22:21;11.85;;;6.05;;
67065;SDS011;53978;43.846;25.952;2022-10-23T05:24:48;9.80;;;5.55;;
67065;SDS011;53978;43.846;25.952;2022-10-23T05:27:14;12.60;;;5.88;;
67065;SDS011;53978;43.846;25.952;2022-10-23T05:29:39;10.65;;;5.72;;
67065;SDS011;53978;43.846;25.952;2022-10-23T05:32:05;9.15;;;6.05;;
67065;SDS011;53978;43.846;25.952;2022-10-23T05:34:32;9.73;;;6.07;;
67065;SDS011;53978;43.846;25.952;2022-10-23T05:36:59;10.32;;;6.32;;
67065;SDS011;53978;43.846;25.952;2022-10-23T05:39:25;11.13;;;5.85;;
67065;SDS011;53978;43.846;25.952;2022-10-23T05:41:51;9.93;;;6.43;;
67065;SDS011;53978;43.846;25.952;2022-10-23T05:44:16;23.33;;;7.07;;
67065;SDS011;53978;43.846;25.952;2022-10-23T05:46:42;10.98;;;5.72;;
67065;SDS011;53978;43.846;25.952;2022-10-23T05:49:07;10.52;;;5.90;;
67065;SDS011;53978;43.846;25.952;2022-10-23T05:51:37;9.45;;;5.82;;
67065;SDS011;53978;43.846;25.952;2022-10-23T05:54:03;8.98;;;5.65;;
67065;SDS011;53978;43.846;25.952;2022-10-23T05:56:32;10.75;;;6.22;;
67065;SDS011;53978;43.846;25.952;2022-10-23T05:58:58;9.43;;;5.78;;
67065;SDS011;53978;43.846;25.952;2022-10-23T06:01:23;12.40;;;5.80;;
67065;SDS011;53978;43.846;25.952;2022-10-23T06:03:49;11.32;;;5.32;;
67065;SDS011;53978;43.846;25.952;2022-10-23T06:12:46;8.73;;;6.07;;
67065;SDS011;53978;43.846;25.952;2022-10-23T06:15:12;9.98;;;5.43;;
67065;SDS011;53978;43.846;25.952;2022-10-23T06:17:39;9.43;;;5.55;;
67065;SDS011;53978;43.846;25.952;2022-10-23T06:20:05;9.48;;;5.63;;
67065;SDS011;53978;43.846;25.952;2022-10-23T06:22:30;9.00;;;5.32;;
67065;SDS011;53978;43.846;25.952;2022-10-23T06:24:56;8.15;;;5.20;;
67065;SDS011;53978;43.846;25.952;2022-10-23T06:27:24;8.15;;;5.68;;
67065;SDS011;53978;43.846;25.952;2022-10-23T06:29:50;12.07;;;5.40;;
67065;SDS011;53978;43.846;25.952;2022-10-23T06:32:15;7.07;;;4.97;;
67065;SDS011;53978;43.846;25.952;2022-10-23T06:34:41;7.95;;;5.28;;
67065;SDS011;53978;43.846;25.952;2022-10-23T06:37:06;5.85;;;5.00;;
67065;SDS011;53978;43.846;25.952;2022-10-23T06:39:42;6.20;;;4.80;;
67065;SDS011;53978;43.846;25.952;2022-10-23T06:42:07;6.90;;;4.68;;
67065;SDS011;53978;43.846;25.952;2022-10-23T06:44:33;15.43;;;4.97;;
67065;SDS011;53978;43.846;25.952;2022-10-23T06:46:58;9.07;;;4.53;;
67065;SDS011;53978;43.846;25.952;2022-10-23T06:49:34;7.72;;;4.53;;
67065;SDS011;53978;43.846;25.952;2022-10-23T06:52:02;6.97;;;4.70;;
67065;SDS011;53978;43.846;25.952;2022-10-23T06:54:27;7.40;;;4.13;;
67065;SDS011;53978;43.846;25.952;2022-10-23T06:56:52;6.40;;;3.70;;
67065;SDS011;53978;43.846;25.952;2022-10-23T06:59:18;20.75;;;3.88;;
67065;SDS011;53978;43.846;25.952;2022-10-23T07:01:48;6.30;;;3.63;;
67065;SDS011;53978;43.846;25.952;2022-10-23T07:04:14;5.88;;;3.63;;
67065;SDS011;53978;43.846;25.952;2022-10-23T07:06:53;4.45;;;3.10;;
67065;SDS011;53978;43.846;25.952;2022-10-23T07:09:19;5.93;;;3.35;;
67065;SDS011;53978;43.846;25.952;2022-10-23T07:11:44;4.45;;;3.30;;
67065;SDS011;53978;43.846;25.952;2022-10-23T07:14:10;4.40;;;3.13;;
67065;SDS011;53978;43.846;25.952;2022-10-23T07:16:43;9.73;;;3.25;;
67065;SDS011;53978;43.846;25.952;2022-10-23T07:19:08;10.63;;;2.97;;
67065;SDS011;53978;43.846;25.952;2022-10-23T07:21:34;6.65;;;2.88;;
67065;SDS011;53978;43.846;25.952;2022-10-23T07:24:00;4.78;;;2.78;;
67065;SDS011;53978;43.846;25.952;2022-10-23T07:26:25;12.45;;;2.60;;
67065;SDS011;53978;43.846;25.952;2022-10-23T07:28:53;6.55;;;2.40;;
67065;SDS011;53978;43.846;25.952;2022-10-23T07:31:20;3.15;;;2.42;;
67065;SDS011;53978;43.846;25.952;2022-10-23T07:33:47;2.63;;;2.30;;
67065;SDS011;53978;43.846;25.952;2022-10-23T07:36:12;3.65;;;2.60;;
67065;SDS011;53978;43.846;25.952;2022-10-23T07:38:40;7.25;;;2.30;;
67065;SDS011;53978;43.846;25.952;2022-10-23T07:41:06;2.45;;;2.00;;
67065;SDS011;53978;43.846;25.952;2022-10-23T07:43:35;5.40;;;2.35;;
67065;SDS011;53978;43.846;25.952;2022-10-23T07:46:03;3.58;;;1.83;;
67065;SDS011;53978;43.846;25.952;2022-10-23T07:48:29;3.78;;;2.20;;
67065;SDS011;53978;43.846;25.952;2022-10-23T07:50:58;6.13;;;2.08;;
67065;SDS011;53978;43.846;25.952;2022-10-23T07:53:25;5.15;;;2.35;;
67065;SDS011;53978;43.846;25.952;2022-10-23T07:55:57;2.10;;;1.92;;
67065;SDS011;53978;43.846;25.952;2022-10-23T07:58:23;2.97;;;1.98;;
67065;SDS011;53978;43.846;25.952;2022-10-23T08:00:53;4.85;;;2.25;;
67065;SDS011;53978;43.846;25.952;2022-10-23T08:03:22;5.43;;;2.15;;
67065;SDS011;53978;43.846;25.952;2022-10-23T08:05:58;2.63;;;1.92;;
67065;SDS011;53978;43.846;25.952;2022-10-23T08:08:33;7.68;;;2.10;;
67065;SDS011;53978;43.846;25.952;2022-10-23T08:10:58;4.93;;;2.20;;
67065;SDS011;53978;43.846;25.952;2022-10-23T08:13:24;3.38;;;1.98;;
67065;SDS011;53978;43.846;25.952;2022-10-23T08:15:50;3.55;;;1.92;;
67065;SDS011;53978;43.846;25.952;2022-10-23T08:18:16;4.90;;;1.90;;
67065;SDS011;53978;43.846;25.952;2022-10-23T08:20:43;6.07;;;1.88;;
67065;SDS011;53978;43.846;25.952;2022-10-23T08:23:21;2.38;;;2.15;;
67065;SDS011;53978;43.846;25.952;2022-10-23T08:25:46;5.40;;;2.05;;
67065;SDS011;53978;43.846;25.952;2022-10-23T08:28:19;2.50;;;2.00;;
67065;SDS011;53978;43.846;25.952;2022-10-23T08:30:47;3.10;;;1.98;;
67065;SDS011;53978;43.846;25.952;2022-10-23T08:33:15;2.00;;;1.77;;
67065;SDS011;53978;43.846;25.952;2022-10-23T08:35:41;3.30;;;1.75;;
67065;SDS011;53978;43.846;25.952;2022-10-23T08:38:06;5.10;;;1.80;;
67065;SDS011;53978;43.846;25.952;2022-10-23T08:40:33;1.92;;;1.73;;
67065;SDS011;53978;43.846;25.952;2022-10-23T08:43:11;2.42;;;1.70;;
67065;SDS011;53978;43.846;25.952;2022-10-23T08:46:03;2.83;;;1.40;;
67065;SDS011;53978;43.846;25.952;2022-10-23T08:48:33;2.50;;;1.50;;
67065;SDS011;53978;43.846;25.952;2022-10-23T08:56:32;1.95;;;1.60;;
67065;SDS011;53978;43.846;25.952;2022-10-23T08:59:14;4.13;;;1.92;;
67065;SDS011;53978;43.846;25.952;2022-10-23T09:04:48;2.47;;;1.55;;
67065;SDS011;53978;43.846;25.952;2022-10-23T09:07:27;3.30;;;1.80;;
67065;SDS011;53978;43.846;25.952;2022-10-23T09:10:06;4.72;;;1.60;;
67065;SDS011;53978;43.846;25.952;2022-10-23T09:12:34;2.42;;;1.35;;
67065;SDS011;53978;43.846;25.952;2022-10-23T09:15:12;3.47;;;1.90;;
67065;SDS011;53978;43.846;25.952;2022-10-23T09:18:06;3.70;;;1.70;;
67065;SDS011;53978;43.846;25.952;2022-10-23T09:20:40;7.85;;;1.60;;
67065;SDS011;53978;43.846;25.952;2022-10-23T09:23:13;5.60;;;1.90;;
67065;SDS011;53978;43.846;25.952;2022-10-23T09:25:41;3.60;;;1.48;;
67065;SDS011;53978;43.846;25.952;2022-10-23T09:28:23;4.68;;;1.67;;
67065;SDS011;53978;43.846;25.952;2022-10-23T09:31:09;11.55;;;1.65;;
67065;SDS011;53978;43.846;25.952;2022-10-23T09:33:37;8.82;;;1.30;;
67065;SDS011;53978;43.846;25.952;2022-10-23T09:41:55;1.90;;;1.53;;
